Time;durP1;ratioP1;P1;durP2;ratioP2;P2;SDS_P1;SDS_P2;PMS_P1;PMS_P2;Temp;Humidity;BMP_temperature;BMP_pressure;BME280_temperature;BME280_humidity;BME280_pressure;Samples;Min_cycle;Max_cycle;Signal;HPM_P1;HPM_P2
2023/06/02 00:01:08;;;;;;;0.10;0.10;;;;;;;;;;5041062;28;20045;-75
2023/06/02 00:03:36;;;;;;;0.10;0.10;;;;;;;;;;5039595;28;20156;-75
2023/06/02 00:06:08;;;;;;;0.10;0.10;;;;;;;;;;5040364;28;20583;-74
2023/06/02 00:08:40;;;;;;;0.10;0.10;;;;;;;;;;5038399;28;20593;-75
2023/06/02 00:11:07;;;;;;;0.10;0.10;;;;;;;;;;5042415;28;20057;-75
2023/06/02 00:13:34;;;;;;;0.10;0.10;;;;;;;;;;5039599;28;20054;-77
2023/06/02 00:16:00;;;;;;;0.10;0.10;;;;;;;;;;5040812;28;20058;-75
2023/06/02 00:18:27;;;;;;;0.10;0.10;;;;;;;;;;5042176;28;20099;-75
2023/06/02 00:20:56;;;;;;;0.85;0.30;;;;;;;;;;5041442;28;20053;-77
2023/06/02 00:23:22;;;;;;;0.20;0.20;;;;;;;;;;5040035;28;20146;-74
2023/06/02 00:25:49;;;;;;;0.10;0.10;;;;;;;;;;5042327;28;20137;-75
2023/06/02 00:28:15;;;;;;;0.20;0.20;;;;;;;;;;5041711;28;20053;-75
2023/06/02 00:30:42;;;;;;;0.10;0.10;;;;;;;;;;5041588;28;20107;-75
2023/06/02 00:33:08;;;;;;;0.20;0.20;;;;;;;;;;5039776;28;20057;-74
2023/06/02 00:35:34;;;;;;;0.10;0.10;;;;;;;;;;5042212;28;20784;-75
2023/06/02 00:38:04;;;;;;;0.17;0.17;;;;;;;;;;5041746;28;20066;-76
2023/06/02 00:40:31;;;;;;;0.10;0.10;;;;;;;;;;5044757;28;20159;-75
2023/06/02 00:43:01;;;;;;;0.10;0.10;;;;;;;;;;5044855;28;20597;-75
2023/06/02 00:45:28;;;;;;;0.10;0.10;;;;;;;;;;5046023;28;20061;-75
2023/06/02 00:47:55;;;;;;;0.38;0.38;;;;;;;;;;5046419;28;20057;-75
2023/06/02 00:50:22;;;;;;;0.10;0.10;;;;;;;;;;5045897;28;20128;-76
2023/06/02 00:52:50;;;;;;;0.10;0.10;;;;;;;;;;5027737;28;20065;-75
2023/06/02 00:55:16;;;;;;;0.10;0.10;;;;;;;;;;5044497;28;20055;-75
2023/06/02 00:57:43;;;;;;;0.10;0.10;;;;;;;;;;5045603;28;20065;-75
2023/06/02 01:00:10;;;;;;;0.20;0.20;;;;;;;;;;5046185;28;20055;-76
2023/06/02 01:02:36;;;;;;;0.43;0.43;;;;;;;;;;5044129;28;20084;-75
2023/06/02 01:05:07;;;;;;;0.10;0.10;;;;;;;;;;5043025;28;20127;-75
2023/06/02 01:07:37;;;;;;;0.10;0.10;;;;;;;;;;5045605;28;20050;-75
2023/06/02 01:10:03;;;;;;;0.10;0.10;;;;;;;;;;5046009;28;20526;-74
2023/06/02 01:12:30;;;;;;;0.10;0.10;;;;;;;;;;5045250;28;20176;-74
2023/06/02 01:14:56;;;;;;;0.10;0.10;;;;;;;;;;5043888;28;20054;-75
2023/06/02 01:17:27;;;;;;;0.10;0.10;;;;;;;;;;5045568;28;20132;-75
2023/06/02 01:19:54;;;;;;;0.10;0.10;;;;;;;;;;5045465;28;20475;-74
2023/06/02 01:22:23;;;;;;;2.10;0.38;;;;;;;;;;5045077;28;20049;-75
2023/06/02 01:24:49;;;;;;;0.20;0.20;;;;;;;;;;5042662;28;20053;-76
2023/06/02 01:27:16;;;;;;;0.20;0.20;;;;;;;;;;5029413;28;20053;-75
2023/06/02 01:29:43;;;;;;;0.10;0.10;;;;;;;;;;5044619;28;20432;-75
2023/06/02 01:32:12;;;;;;;0.10;0.10;;;;;;;;;;5045226;28;20085;-76
2023/06/02 01:34:50;;;;;;;0.10;0.10;;;;;;;;;;5042253;28;20625;-75
2023/06/02 01:37:18;;;;;;;0.10;0.10;;;;;;;;;;5044361;28;20100;-76
2023/06/02 01:39:46;;;;;;;0.10;0.10;;;;;;;;;;5044909;28;20058;-74
2023/06/02 01:42:13;;;;;;;0.10;0.10;;;;;;;;;;5045449;28;20108;-74
2023/06/02 01:44:41;;;;;;;1.20;0.50;;;;;;;;;;5043742;28;20112;-75
2023/06/02 01:47:07;;;;;;;0.10;0.10;;;;;;;;;;5044667;28;20050;-76
2023/06/02 01:49:34;;;;;;;0.13;0.13;;;;;;;;;;5044561;28;20053;-75
2023/06/02 01:52:00;;;;;;;0.10;0.10;;;;;;;;;;5045002;28;20582;-75
2023/06/02 01:54:27;;;;;;;0.10;0.10;;;;;;;;;;5042417;28;20612;-76
2023/06/02 01:56:53;;;;;;;0.10;0.10;;;;;;;;;;5044634;28;20163;-75
2023/06/02 01:59:20;;;;;;;0.10;0.10;;;;;;;;;;5043628;28;20054;-74
2023/06/02 02:01:47;;;;;;;0.10;0.10;;;;;;;;;;5045270;28;20688;-76
2023/06/02 02:04:13;;;;;;;0.47;0.47;;;;;;;;;;5042939;28;20057;-76
2023/06/02 02:06:42;;;;;;;0.35;0.35;;;;;;;;;;5044232;28;20049;-75
2023/06/02 02:09:08;;;;;;;0.10;0.10;;;;;;;;;;5028282;28;20552;-75
2023/06/02 02:11:35;;;;;;;1.27;0.60;;;;;;;;;;5041761;28;20555;-74
2023/06/02 02:14:04;;;;;;;0.10;0.10;;;;;;;;;;5042687;28;20136;-75
2023/06/02 02:16:31;;;;;;;0.30;0.30;;;;;;;;;;5044563;28;20053;-74
2023/06/02 02:18:58;;;;;;;0.10;0.10;;;;;;;;;;5044479;28;20297;-75
2023/06/02 02:21:28;;;;;;;0.10;0.10;;;;;;;;;;5042186;28;20054;-75
2023/06/02 02:23:54;;;;;;;0.10;0.10;;;;;;;;;;5043088;28;20060;-77
2023/06/02 02:26:21;;;;;;;0.10;0.10;;;;;;;;;;5042225;28;20053;-75
2023/06/02 02:28:48;;;;;;;0.10;0.10;;;;;;;;;;5043611;28;20053;-75
2023/06/02 02:31:15;;;;;;;0.17;0.17;;;;;;;;;;5041549;28;20049;-75
2023/06/02 02:33:41;;;;;;;0.10;0.10;;;;;;;;;;5044322;28;20514;-75
2023/06/02 02:36:08;;;;;;;0.10;0.10;;;;;;;;;;5043590;28;20768;-76
2023/06/02 02:38:35;;;;;;;0.10;0.10;;;;;;;;;;5044679;28;20250;-76
2023/06/02 02:41:01;;;;;;;0.10;0.10;;;;;;;;;;5041989;28;20107;-76
2023/06/02 02:43:27;;;;;;;0.32;0.32;;;;;;;;;;5043921;28;20132;-76
2023/06/02 02:45:54;;;;;;;0.10;0.10;;;;;;;;;;5044565;28;20057;-76
2023/06/02 02:48:20;;;;;;;0.10;0.10;;;;;;;;;;5042995;28;20461;-75
2023/06/02 02:50:47;;;;;;;0.10;0.10;;;;;;;;;;5041497;28;20141;-75
2023/06/02 02:53:15;;;;;;;0.13;0.13;;;;;;;;;;5044624;28;20104;-77
2023/06/02 02:55:44;;;;;;;0.10;0.10;;;;;;;;;;5043681;28;20064;-75
2023/06/02 03:00:45;;;;;;;0.15;0.15;;;;;;;;;;5110793;22;19935;-77
2023/06/02 03:03:13;;;;;;;0.10;0.10;;;;;;;;;;5080772;28;20060;-76
2023/06/02 03:05:41;;;;;;;0.10;0.10;;;;;;;;;;5079484;28;20125;-76
2023/06/02 03:08:09;;;;;;;0.10;0.10;;;;;;;;;;5075066;28;20106;-77
2023/06/02 03:10:35;;;;;;;0.10;0.10;;;;;;;;;;5078192;28;20063;-76
2023/06/02 03:13:02;;;;;;;0.10;0.10;;;;;;;;;;5075228;28;20107;-76
2023/06/02 03:15:28;;;;;;;0.10;0.10;;;;;;;;;;5083190;28;20080;-76
2023/06/02 03:17:55;;;;;;;0.10;0.10;;;;;;;;;;5083847;28;20060;-76
2023/06/02 03:20:21;;;;;;;0.10;0.10;;;;;;;;;;5074212;28;20053;-76
2023/06/02 03:22:48;;;;;;;0.10;0.10;;;;;;;;;;5071474;28;20049;-76
2023/06/02 03:25:14;;;;;;;0.10;0.10;;;;;;;;;;5083153;28;20539;-77
2023/06/02 03:27:41;;;;;;;0.30;0.30;;;;;;;;;;5082775;28;20163;-76
2023/06/02 03:30:07;;;;;;;0.10;0.10;;;;;;;;;;5084055;28;20144;-76
2023/06/02 03:32:34;;;;;;;0.10;0.10;;;;;;;;;;5082617;28;20044;-77
2023/06/02 03:35:00;;;;;;;0.10;0.10;;;;;;;;;;5079378;28;20064;-76
2023/06/02 03:37:27;;;;;;;0.10;0.10;;;;;;;;;;5071726;28;20183;-76
2023/06/02 03:39:53;;;;;;;0.10;0.10;;;;;;;;;;5074438;28;20057;-76
2023/06/02 03:42:19;;;;;;;0.10;0.10;;;;;;;;;;5062737;28;20469;-76
2023/06/02 03:44:46;;;;;;;0.10;0.10;;;;;;;;;;5076891;28;20592;-76
2023/06/02 03:47:12;;;;;;;0.10;0.10;;;;;;;;;;5083901;28;20103;-76
2023/06/02 03:49:38;;;;;;;0.10;0.10;;;;;;;;;;5083130;28;20143;-76
2023/06/02 03:52:05;;;;;;;0.10;0.10;;;;;;;;;;5081608;28;20055;-76
2023/06/02 03:54:31;;;;;;;0.10;0.10;;;;;;;;;;5082899;28;20052;-76
2023/06/02 03:56:58;;;;;;;0.13;0.13;;;;;;;;;;5072558;28;20963;-76
2023/06/02 03:59:24;;;;;;;0.10;0.10;;;;;;;;;;5078479;28;20131;-76
2023/06/02 04:01:50;;;;;;;0.10;0.10;;;;;;;;;;5075139;28;20060;-76
2023/06/02 04:04:17;;;;;;;0.10;0.10;;;;;;;;;;5083739;28;20060;-75
2023/06/02 04:06:44;;;;;;;0.10;0.10;;;;;;;;;;5086075;28;20049;-76
2023/06/02 04:09:11;;;;;;;0.13;0.13;;;;;;;;;;5085491;28;20056;-76
2023/06/02 04:11:38;;;;;;;0.20;0.20;;;;;;;;;;5449051;22;20114;-76
2023/06/02 04:14:04;;;;;;;0.10;0.10;;;;;;;;;;5075322;28;20107;-77
2023/06/02 04:16:31;;;;;;;0.10;0.10;;;;;;;;;;5063293;28;20053;-76
2023/06/02 04:18:58;;;;;;;0.10;0.10;;;;;;;;;;5055238;28;20128;-76
2023/06/02 04:21:25;;;;;;;0.10;0.10;;;;;;;;;;5063522;28;20102;-78
2023/06/02 04:23:52;;;;;;;0.20;0.20;;;;;;;;;;5046998;28;20566;-78
2023/06/02 04:26:18;;;;;;;0.10;0.10;;;;;;;;;;5040486;28;20128;-78
2023/06/02 04:28:45;;;;;;;0.10;0.10;;;;;;;;;;5049206;28;20642;-78
2023/06/02 04:31:11;;;;;;;0.10;0.10;;;;;;;;;;5051098;28;20546;-78
2023/06/02 04:33:38;;;;;;;0.10;0.10;;;;;;;;;;5059665;28;20045;-78
2023/06/02 04:36:05;;;;;;;0.10;0.10;;;;;;;;;;5062281;28;20053;-78
2023/06/02 04:38:32;;;;;;;0.10;0.10;;;;;;;;;;5058343;28;21932;-78
2023/06/02 04:41:01;;;;;;;0.10;0.10;;;;;;;;;;5052434;28;20053;-78
2023/06/02 04:43:28;;;;;;;0.10;0.10;;;;;;;;;;5055903;28;20159;-79
2023/06/02 04:45:56;;;;;;;0.10;0.10;;;;;;;;;;5062024;28;20053;-78
2023/06/02 04:48:23;;;;;;;0.10;0.10;;;;;;;;;;5060285;28;20088;-78
2023/06/02 04:50:50;;;;;;;0.10;0.10;;;;;;;;;;5699904;22;20150;-75
2023/06/02 04:53:16;;;;;;;0.10;0.10;;;;;;;;;;5078933;28;20140;-75
2023/06/02 04:55:44;;;;;;;0.10;0.10;;;;;;;;;;5069961;28;20520;-76
2023/06/02 04:58:10;;;;;;;0.10;0.10;;;;;;;;;;5062626;28;20584;-78
2023/06/02 05:00:37;;;;;;;0.10;0.10;;;;;;;;;;5060627;28;20104;-77
2023/06/02 05:03:03;;;;;;;0.10;0.10;;;;;;;;;;5066561;28;20059;-78
2023/06/02 05:05:30;;;;;;;0.10;0.10;;;;;;;;;;5067909;28;20099;-77
2023/06/02 05:07:57;;;;;;;0.10;0.10;;;;;;;;;;5074125;28;20052;-77
2023/06/02 05:10:24;;;;;;;0.20;0.20;;;;;;;;;;5064433;28;20057;-77
2023/06/02 05:12:52;;;;;;;0.10;0.10;;;;;;;;;;5060691;28;20204;-76
2023/06/02 05:15:19;;;;;;;0.10;0.10;;;;;;;;;;5061835;28;20053;-76
2023/06/02 05:17:46;;;;;;;0.10;0.10;;;;;;;;;;5062395;28;20064;-77
2023/06/02 05:20:12;;;;;;;0.10;0.10;;;;;;;;;;5061269;28;20056;-76
2023/06/02 05:22:39;;;;;;;0.10;0.10;;;;;;;;;;5075494;28;20593;-77
2023/06/02 05:25:06;;;;;;;0.10;0.10;;;;;;;;;;5078600;28;20048;-77
2023/06/02 05:27:37;;;;;;;0.10;0.10;;;;;;;;;;5072897;28;20556;-77
2023/06/02 05:30:04;;;;;;;0.10;0.10;;;;;;;;;;5069030;28;20056;-77
2023/06/02 05:32:30;;;;;;;0.10;0.10;;;;;;;;;;5076317;28;20045;-77
2023/06/02 05:34:57;;;;;;;0.20;0.20;;;;;;;;;;5066725;28;20072;-77
2023/06/02 05:37:23;;;;;;;0.10;0.10;;;;;;;;;;5066770;28;20064;-77
2023/06/02 05:39:50;;;;;;;0.10;0.10;;;;;;;;;;5075677;28;20051;-77
2023/06/02 05:42:16;;;;;;;0.10;0.10;;;;;;;;;;5082972;28;20054;-77
2023/06/02 05:44:43;;;;;;;0.10;0.10;;;;;;;;;;5067162;28;20057;-77
2023/06/02 05:47:10;;;;;;;0.10;0.10;;;;;;;;;;5071899;28;20463;-77
2023/06/02 05:49:36;;;;;;;0.10;0.10;;;;;;;;;;5073679;28;20092;-77
2023/06/02 05:52:03;;;;;;;0.10;0.10;;;;;;;;;;5067114;28;20136;-77
2023/06/02 05:54:30;;;;;;;0.30;0.30;;;;;;;;;;5072929;28;20123;-76
2023/06/02 05:56:56;;;;;;;0.10;0.10;;;;;;;;;;5072201;28;20053;-76
2023/06/02 05:59:23;;;;;;;0.30;0.30;;;;;;;;;;5057552;28;20091;-76
2023/06/02 06:01:49;;;;;;;0.10;0.10;;;;;;;;;;5061352;28;20526;-76
2023/06/02 06:04:16;;;;;;;0.20;0.20;;;;;;;;;;5065044;28;20103;-76
2023/06/02 06:06:42;;;;;;;0.10;0.10;;;;;;;;;;5058921;28;20578;-77
2023/06/02 06:09:08;;;;;;;0.10;0.10;;;;;;;;;;5063732;28;20060;-77
2023/06/02 06:11:36;;;;;;;0.10;0.10;;;;;;;;;;5062773;28;20122;-76
2023/06/02 06:14:05;;;;;;;0.10;0.10;;;;;;;;;;5061022;28;20144;-77
2023/06/02 06:16:32;;;;;;;0.35;0.35;;;;;;;;;;5063712;28;20053;-77
2023/06/02 06:19:00;;;;;;;0.10;0.10;;;;;;;;;;5064542;28;20052;-76
2023/06/02 06:21:26;;;;;;;0.43;0.43;;;;;;;;;;5064743;28;20495;-77
2023/06/02 06:23:53;;;;;;;0.10;0.10;;;;;;;;;;5063630;28;20053;-77
2023/06/02 06:26:20;;;;;;;0.10;0.10;;;;;;;;;;5064524;28;20237;-77
2023/06/02 06:28:47;;;;;;;0.10;0.10;;;;;;;;;;5060279;28;20499;-77
2023/06/02 06:31:13;;;;;;;0.10;0.10;;;;;;;;;;5064633;28;20585;-77
2023/06/02 06:33:40;;;;;;;0.32;0.25;;;;;;;;;;5065212;28;20091;-77
2023/06/02 06:36:07;;;;;;;0.10;0.10;;;;;;;;;;5062496;28;20076;-77
2023/06/02 06:38:34;;;;;;;0.10;0.10;;;;;;;;;;5065895;28;20535;-77
2023/06/02 06:41:00;;;;;;;0.10;0.10;;;;;;;;;;5061895;28;20060;-77
2023/06/02 06:43:27;;;;;;;0.10;0.10;;;;;;;;;;5079863;28;20111;-77
2023/06/02 06:45:53;;;;;;;0.10;0.10;;;;;;;;;;5064931;28;20484;-77
2023/06/02 06:48:20;;;;;;;0.15;0.15;;;;;;;;;;5062788;28;20139;-77
2023/06/02 06:50:48;;;;;;;0.10;0.10;;;;;;;;;;5065196;28;20048;-77
2023/06/02 06:53:15;;;;;;;0.10;0.10;;;;;;;;;;5064439;28;20053;-76
2023/06/02 06:55:42;;;;;;;0.10;0.10;;;;;;;;;;5064013;28;20422;-76
2023/06/02 06:58:08;;;;;;;0.20;0.20;;;;;;;;;;5062018;28;20068;-76
2023/06/02 07:00:35;;;;;;;0.10;0.10;;;;;;;;;;5062173;28;20598;-76
2023/06/02 07:03:01;;;;;;;0.30;0.30;;;;;;;;;;5058983;28;20080;-76
2023/06/02 07:05:28;;;;;;;0.25;0.25;;;;;;;;;;5068039;28;20060;-76
2023/06/02 07:07:55;;;;;;;0.10;0.10;;;;;;;;;;5071964;28;20052;-77
2023/06/02 07:10:21;;;;;;;0.10;0.10;;;;;;;;;;5079417;28;20072;-74
2023/06/02 07:12:48;;;;;;;0.10;0.10;;;;;;;;;;5062563;28;20107;-76
2023/06/02 07:15:15;;;;;;;0.10;0.10;;;;;;;;;;5063341;28;20100;-75
2023/06/02 07:17:41;;;;;;;0.10;0.10;;;;;;;;;;5063951;28;20114;-76
2023/06/02 07:20:11;;;;;;;0.20;0.20;;;;;;;;;;5064147;28;20517;-75
2023/06/02 07:22:38;;;;;;;0.10;0.10;;;;;;;;;;5062825;28;20088;-76
2023/06/02 07:25:05;;;;;;;0.10;0.10;;;;;;;;;;5063849;28;20510;-75
2023/06/02 07:27:32;;;;;;;0.10;0.10;;;;;;;;;;5063605;28;20503;-75
2023/06/02 07:29:59;;;;;;;0.10;0.10;;;;;;;;;;5062882;28;20085;-76
2023/06/02 07:32:25;;;;;;;0.10;0.10;;;;;;;;;;5045804;28;20053;-75
2023/06/02 07:34:52;;;;;;;0.10;0.10;;;;;;;;;;5060844;28;20420;-75
2023/06/02 07:37:19;;;;;;;0.20;0.20;;;;;;;;;;5062015;28;20053;-76
2023/06/02 07:39:45;;;;;;;0.13;0.13;;;;;;;;;;5062188;28;20122;-75
2023/06/02 07:42:12;;;;;;;1.45;0.40;;;;;;;;;;5059777;28;20064;-76
2023/06/02 07:44:38;;;;;;;0.10;0.10;;;;;;;;;;5057462;28;20056;-76
2023/06/02 07:47:07;;;;;;;0.10;0.10;;;;;;;;;;5060922;28;20140;-76
2023/06/02 07:49:35;;;;;;;2.65;2.40;;;;;;;;;;5055926;28;20107;-76
2023/06/02 07:52:02;;;;;;;0.10;0.10;;;;;;;;;;5060607;28;20590;-76
2023/06/02 07:54:29;;;;;;;0.55;0.55;;;;;;;;;;5059261;28;20071;-76
2023/06/02 07:56:55;;;;;;;0.20;0.20;;;;;;;;;;5068263;28;20179;-75
2023/06/02 07:59:23;;;;;;;0.10;0.10;;;;;;;;;;5062104;28;20340;-76
2023/06/02 08:01:50;;;;;;;0.10;0.10;;;;;;;;;;5065355;28;20087;-76
2023/06/02 08:04:17;;;;;;;0.25;0.25;;;;;;;;;;5083555;28;20048;-76
2023/06/02 08:06:44;;;;;;;0.10;0.10;;;;;;;;;;5062998;28;20053;-75
2023/06/02 08:09:10;;;;;;;0.30;0.30;;;;;;;;;;5070229;28;20052;-75
2023/06/02 08:11:37;;;;;;;0.25;0.25;;;;;;;;;;5082671;28;20487;-76
2023/06/02 08:14:04;;;;;;;0.85;0.35;;;;;;;;;;5072353;28;20090;-75
2023/06/02 08:16:31;;;;;;;0.10;0.10;;;;;;;;;;5060588;28;20064;-76
2023/06/02 08:19:19;;;;;;;0.45;0.45;;;;;;;;;;5064268;28;20143;-76
2023/06/02 08:21:46;;;;;;;0.10;0.10;;;;;;;;;;5078523;28;20596;-75
2023/06/02 08:24:12;;;;;;;0.25;0.25;;;;;;;;;;5083088;28;20056;-76
2023/06/02 08:26:39;;;;;;;0.10;0.10;;;;;;;;;;5082437;28;20088;-76
2023/06/02 08:29:08;;;;;;;0.10;0.10;;;;;;;;;;5070429;28;20669;-76
2023/06/02 08:31:36;;;;;;;0.10;0.10;;;;;;;;;;5062976;28;20518;-76
2023/06/02 08:34:04;;;;;;;0.10;0.10;;;;;;;;;;5063701;28;20053;-76
2023/06/02 08:36:32;;;;;;;0.93;0.35;;;;;;;;;;5060638;28;20700;-76
2023/06/02 08:39:05;;;;;;;0.15;0.15;;;;;;;;;;5058506;28;20057;-76
2023/06/02 08:41:38;;;;;;;0.75;0.75;;;;;;;;;;5060223;28;20053;-76
2023/06/02 08:44:05;;;;;;;0.10;0.10;;;;;;;;;;5060135;28;20519;-77
2023/06/02 08:46:32;;;;;;;0.63;0.55;;;;;;;;;;5057969;28;20038;-76
2023/06/02 08:49:00;;;;;;;0.10;0.10;;;;;;;;;;5060273;28;20048;-76
2023/06/02 08:51:28;;;;;;;9.07;1.15;;;;;;;;;;5060717;28;20059;-77
2023/06/02 08:53:54;;;;;;;0.10;0.10;;;;;;;;;;5062401;28;20148;-76
2023/06/02 08:56:22;;;;;;;0.10;0.10;;;;;;;;;;5059469;28;20084;-76
2023/06/02 08:58:49;;;;;;;0.20;0.20;;;;;;;;;;5054695;28;20056;-76
2023/06/02 09:01:16;;;;;;;0.10;0.10;;;;;;;;;;5065864;28;20982;-76
2023/06/02 09:03:46;;;;;;;0.10;0.10;;;;;;;;;;5057897;28;20859;-76
2023/06/02 09:06:20;;;;;;;0.22;0.22;;;;;;;;;;5061069;28;20058;-76
2023/06/02 09:08:54;;;;;;;0.22;0.20;;;;;;;;;;5071490;28;20443;-75
2023/06/02 09:11:20;;;;;;;0.20;0.20;;;;;;;;;;5068637;28;20549;-76
2023/06/02 09:13:47;;;;;;;0.10;0.10;;;;;;;;;;5070925;28;20151;-76
2023/06/02 09:16:13;;;;;;;0.10;0.10;;;;;;;;;;5065166;28;20061;-75
2023/06/02 09:18:53;;;;;;;0.40;0.40;;;;;;;;;;5063777;28;20507;-75
2023/06/02 09:21:23;;;;;;;0.10;0.10;;;;;;;;;;5063687;28;20064;-75
2023/06/02 09:23:50;;;;;;;0.10;0.10;;;;;;;;;;5061886;28;20100;-75
2023/06/02 09:26:36;;;;;;;0.10;0.10;;;;;;;;;;5064456;28;20139;-76
2023/06/02 09:29:07;;;;;;;0.10;0.10;;;;;;;;;;5063764;28;20274;-76
2023/06/02 09:31:56;;;;;;;0.10;0.10;;;;;;;;;;5063734;28;20053;-75
2023/06/02 09:34:23;;;;;;;1.88;0.52;;;;;;;;;;5066044;28;20514;-75
2023/06/02 09:36:51;;;;;;;0.10;0.10;;;;;;;;;;5078028;28;20487;-75
2023/06/02 09:39:42;;;;;;;0.10;0.10;;;;;;;;;;5073569;28;20045;-75
2023/06/02 09:42:08;;;;;;;;;;;;;;;;;;5064152;28;20053;-75
2023/06/02 09:44:35;;;;;;;0.20;0.20;;;;;;;;;;5078967;28;47839;-75
2023/06/02 09:47:05;;;;;;;0.10;0.10;;;;;;;;;;5065288;28;20151;-75
2023/06/02 09:49:39;;;;;;;0.17;0.17;;;;;;;;;;5079010;28;20061;-75
2023/06/02 09:52:13;;;;;;;0.10;0.10;;;;;;;;;;5066733;28;20053;-74
2023/06/02 09:54:47;;;;;;;0.10;0.10;;;;;;;;;;5063829;28;20106;-74
2023/06/02 09:57:15;;;;;;;0.10;0.10;;;;;;;;;;5059811;28;20057;-75
2023/06/02 09:59:42;;;;;;;1.55;0.75;;;;;;;;;;5060378;28;20124;-74
2023/06/02 10:02:09;;;;;;;0.10;0.10;;;;;;;;;;5059870;28;20059;-74
2023/06/02 10:04:36;;;;;;;0.30;0.22;;;;;;;;;;5065548;28;20139;-74
2023/06/02 10:07:08;;;;;;;0.65;0.40;;;;;;;;;;5064286;28;20068;-74
2023/06/02 10:10:10;;;;;;;0.20;0.20;;;;;;;;;;5064413;28;20053;-75
2023/06/02 10:12:44;;;;;;;0.10;0.10;;;;;;;;;;5037155;28;20136;-75
2023/06/02 10:15:29;;;;;;;0.45;0.15;;;;;;;;;;5057617;28;20057;-75
2023/06/02 10:17:55;;;;;;;0.15;0.15;;;;;;;;;;5064529;28;20059;-75
2023/06/02 10:20:35;;;;;;;0.10;0.10;;;;;;;;;;5068341;28;20049;-76
2023/06/02 10:23:27;;;;;;;0.10;0.10;;;;;;;;;;5062014;28;20867;-75
2023/06/02 10:25:57;;;;;;;0.10;0.10;;;;;;;;;;5061276;28;20049;-75
2023/06/02 10:28:26;;;;;;;0.50;0.50;;;;;;;;;;5063177;28;21384;-75
2023/06/02 10:31:06;;;;;;;0.30;0.20;;;;;;;;;;5067062;28;20088;-74
2023/06/02 10:33:45;;;;;;;0.10;0.10;;;;;;;;;;5067907;28;20063;-75
2023/06/02 10:36:17;;;;;;;0.10;0.10;;;;;;;;;;5066215;28;20495;-74
2023/06/02 10:38:45;;;;;;;0.17;0.17;;;;;;;;;;5063647;28;20057;-74
2023/06/02 10:41:14;;;;;;;0.10;0.10;;;;;;;;;;5081650;28;20049;-75
2023/06/02 10:44:01;;;;;;;0.10;0.10;;;;;;;;;;5079733;28;20503;-74
2023/06/02 10:46:27;;;;;;;0.20;0.20;;;;;;;;;;5064115;28;20170;-74
2023/06/02 10:48:54;;;;;;;0.28;0.28;;;;;;;;;;5081738;28;20067;-74
2023/06/02 10:51:21;;;;;;;0.50;0.50;;;;;;;;;;5062661;28;20868;-74
2023/06/02 10:54:06;;;;;;;0.10;0.10;;;;;;;;;;5064822;28;20107;-74
2023/06/02 10:56:35;;;;;;;0.30;0.30;;;;;;;;;;5068131;28;20423;-74
2023/06/02 10:59:02;;;;;;;0.20;0.20;;;;;;;;;;5061749;28;20219;-74
2023/06/02 11:01:47;;;;;;;0.10;0.10;;;;;;;;;;5061750;28;20462;-74
2023/06/02 11:04:27;;;;;;;0.10;0.10;;;;;;;;;;5062710;28;20053;-74
2023/06/02 11:07:12;;;;;;;2.70;1.38;;;;;;;;;;5061467;28;20515;-74
2023/06/02 11:09:43;;;;;;;0.10;0.10;;;;;;;;;;5060846;28;20147;-74
2023/06/02 11:12:10;;;;;;;0.20;0.20;;;;;;;;;;5062959;28;20052;-74
2023/06/02 11:14:55;;;;;;;0.47;0.25;;;;;;;;;;5062161;28;20527;-74
2023/06/02 11:17:29;;;;;;;0.30;0.30;;;;;;;;;;5062276;28;20056;-74
2023/06/02 11:19:57;;;;;;;0.20;0.20;;;;;;;;;;5059249;28;20056;-74
2023/06/02 11:22:24;;;;;;;0.80;0.30;;;;;;;;;;5057844;28;20049;-74
2023/06/02 11:24:51;;;;;;;0.20;0.20;;;;;;;;;;5063774;28;20053;-74
2023/06/02 11:27:17;;;;;;;0.20;0.20;;;;;;;;;;5075370;28;20060;-75
2023/06/02 11:29:44;;;;;;;0.40;0.40;;;;;;;;;;5073801;28;20049;-75
2023/06/02 11:32:13;;;;;;;0.25;0.20;;;;;;;;;;5061076;28;20163;-75
2023/06/02 11:34:40;;;;;;;0.20;0.20;;;;;;;;;;5064352;28;20515;-74
2023/06/02 11:37:13;;;;;;;0.20;0.20;;;;;;;;;;5061827;28;20106;-74
2023/06/02 11:39:48;;;;;;;3.85;1.20;;;;;;;;;;5064830;28;20053;-74
2023/06/02 11:42:14;;;;;;;1.55;0.30;;;;;;;;;;5064783;28;20084;-74
2023/06/02 11:44:50;;;;;;;0.10;0.10;;;;;;;;;;5064707;28;20586;-75
2023/06/02 11:47:20;;;;;;;0.20;0.20;;;;;;;;;;5062982;28;20080;-74
2023/06/02 11:49:50;;;;;;;0.20;0.20;;;;;;;;;;5064446;28;20080;-75
2023/06/02 11:52:16;;;;;;;0.43;0.20;;;;;;;;;;5064080;28;20053;-75
2023/06/02 11:54:53;;;;;;;0.20;0.20;;;;;;;;;;5060338;28;20061;-74
2023/06/02 11:57:30;;;;;;;1.58;0.68;;;;;;;;;;5059978;28;20077;-74
2023/06/02 12:00:09;;;;;;;0.95;0.60;;;;;;;;;;5073219;28;20176;-74
2023/06/02 12:02:36;;;;;;;0.20;0.20;;;;;;;;;;5078357;28;20597;-74
2023/06/02 12:05:03;;;;;;;0.20;0.20;;;;;;;;;;5068348;28;20060;-74
2023/06/02 12:07:30;;;;;;;0.15;0.15;;;;;;;;;;5063128;28;20059;-74
2023/06/02 12:10:25;;;;;;;0.20;0.20;;;;;;;;;;5064364;28;20098;-75
2023/06/02 12:12:57;;;;;;;0.30;0.30;;;;;;;;;;5068463;28;20140;-75
2023/06/02 12:15:31;;;;;;;0.20;0.20;;;;;;;;;;5077832;28;20139;-75
2023/06/02 12:17:58;;;;;;;0.20;0.20;;;;;;;;;;5075623;28;20052;-75
2023/06/02 12:20:33;;;;;;;0.10;0.10;;;;;;;;;;5062701;28;20091;-75
2023/06/02 12:22:59;;;;;;;0.20;0.20;;;;;;;;;;5066383;28;20055;-75
2023/06/02 12:25:26;;;;;;;0.20;0.20;;;;;;;;;;5076241;28;20060;-75
2023/06/02 12:28:03;;;;;;;0.20;0.20;;;;;;;;;;5075216;28;20059;-75
2023/06/02 12:30:30;;;;;;;0.30;0.20;;;;;;;;;;5054001;28;20511;-75
2023/06/02 12:33:04;;;;;;;2.60;0.52;;;;;;;;;;5063604;28;20132;-75
2023/06/02 12:35:31;;;;;;;0.55;0.40;;;;;;;;;;5076395;28;20064;-75
2023/06/02 12:37:58;;;;;;;0.20;0.20;;;;;;;;;;5068572;28;20107;-75
2023/06/02 12:40:25;;;;;;;0.20;0.20;;;;;;;;;;5076784;28;20876;-76
2023/06/02 12:42:51;;;;;;;2.75;0.40;;;;;;;;;;5063238;28;20132;-75
2023/06/02 12:45:18;;;;;;;0.40;0.40;;;;;;;;;;5063949;28;20136;-75
2023/06/02 12:47:44;;;;;;;0.20;0.20;;;;;;;;;;5062667;28;20506;-76
2023/06/02 12:50:11;;;;;;;0.50;0.47;;;;;;;;;;5066174;28;20111;-76
2023/06/02 12:52:37;;;;;;;0.20;0.20;;;;;;;;;;5067174;28;20061;-76
2023/06/02 12:55:06;;;;;;;0.20;0.20;;;;;;;;;;5071745;28;20063;-75
2023/06/02 12:57:32;;;;;;;0.47;0.47;;;;;;;;;;5066448;28;20055;-75
2023/06/02 13:00:00;;;;;;;0.25;0.25;;;;;;;;;;5083441;28;20059;-75
2023/06/02 13:02:26;;;;;;;0.20;0.20;;;;;;;;;;5073820;28;20301;-75
2023/06/02 13:04:53;;;;;;;0.20;0.20;;;;;;;;;;5068551;28;20106;-75
2023/06/02 13:07:20;;;;;;;0.20;0.20;;;;;;;;;;5087679;28;20076;-75
2023/06/02 13:09:47;;;;;;;0.40;0.38;;;;;;;;;;5086617;28;20052;-75
2023/06/02 13:12:14;;;;;;;0.22;0.20;;;;;;;;;;5081997;28;20060;-75
2023/06/02 13:14:40;;;;;;;0.20;0.20;;;;;;;;;;5070629;28;20052;-75
2023/06/02 13:17:07;;;;;;;0.20;0.20;;;;;;;;;;5084939;28;20060;-75
2023/06/02 13:19:34;;;;;;;0.20;0.20;;;;;;;;;;5064587;28;20053;-75
2023/06/02 13:22:02;;;;;;;0.25;0.25;;;;;;;;;;5065342;28;20470;-75
2023/06/02 13:24:31;;;;;;;0.20;0.20;;;;;;;;;;5066276;28;20052;-75
2023/06/02 13:26:57;;;;;;;0.20;0.20;;;;;;;;;;5068836;28;20053;-75
2023/06/02 13:29:51;;;;;;;0.20;0.20;;;;;;;;;;5076557;28;20053;-75
2023/06/02 13:32:18;;;;;;;0.65;0.30;;;;;;;;;;5075222;28;20107;-75
2023/06/02 13:34:57;;;;;;;0.20;0.20;;;;;;;;;;5065077;28;20053;-75
2023/06/02 13:37:24;;;;;;;0.20;0.20;;;;;;;;;;5071763;28;20053;-75
2023/06/02 13:39:51;;;;;;;0.25;0.25;;;;;;;;;;5065817;28;20061;-75
2023/06/02 13:42:18;;;;;;;0.30;0.20;;;;;;;;;;5065318;28;20647;-75
2023/06/02 13:44:56;;;;;;;0.30;0.30;;;;;;;;;;5069132;28;20049;-75
2023/06/02 13:47:55;;;;;;;0.20;0.20;;;;;;;;;;5085171;28;20059;-76
2023/06/02 13:50:35;;;;;;;0.30;0.30;;;;;;;;;;5059216;28;20076;-75
2023/06/02 13:53:02;;;;;;;0.77;0.50;;;;;;;;;;5064866;28;20057;-75
2023/06/02 13:58:03;;;;;;;0.30;0.30;;;;;;;;;;5548902;22;20053;-73
2023/06/02 14:00:30;;;;;;;0.22;0.22;;;;;;;;;;5063678;28;20049;-74
2023/06/02 14:02:56;;;;;;;0.73;0.30;;;;;;;;;;5059908;28;20079;-73
2023/06/02 14:05:23;;;;;;;0.20;0.20;;;;;;;;;;5051776;28;20049;-71
2023/06/02 14:07:49;;;;;;;0.22;0.22;;;;;;;;;;5040283;28;20053;-72
2023/06/02 14:10:16;;;;;;;0.20;0.20;;;;;;;;;;5038999;28;20140;-73
2023/06/02 14:12:43;;;;;;;0.38;0.20;;;;;;;;;;5036799;28;20132;-73
2023/06/02 14:15:11;;;;;;;0.20;0.20;;;;;;;;;;5044672;28;20064;-74
2023/06/02 14:17:38;;;;;;;0.25;0.25;;;;;;;;;;5044407;28;20058;-73
2023/06/02 14:20:05;;;;;;;0.20;0.20;;;;;;;;;;5041875;28;20055;-73
2023/06/02 14:22:31;;;;;;;0.20;0.20;;;;;;;;;;5040827;28;20103;-72
2023/06/02 14:24:58;;;;;;;0.20;0.20;;;;;;;;;;5041337;28;20137;-72
2023/06/02 14:27:24;;;;;;;0.98;0.38;;;;;;;;;;5039427;28;20085;-73
2023/06/02 14:29:51;;;;;;;0.20;0.20;;;;;;;;;;5041706;28;20057;-73
2023/06/02 14:32:17;;;;;;;0.20;0.20;;;;;;;;;;5043359;28;20176;-73
2023/06/02 14:34:44;;;;;;;0.20;0.20;;;;;;;;;;5042134;28;20053;-73
2023/06/02 14:37:12;;;;;;;0.20;0.20;;;;;;;;;;5037464;28;20069;-73
2023/06/02 14:39:39;;;;;;;0.20;0.20;;;;;;;;;;5038727;28;20064;-72
2023/06/02 14:42:06;;;;;;;0.30;0.30;;;;;;;;;;5041766;28;20064;-74
2023/06/02 14:44:33;;;;;;;0.30;0.30;;;;;;;;;;5034154;28;20050;-72
2023/06/02 14:47:00;;;;;;;0.20;0.20;;;;;;;;;;5041372;28;20140;-73
2023/06/02 14:49:26;;;;;;;0.20;0.20;;;;;;;;;;5044862;28;20064;-74
2023/06/02 14:51:52;;;;;;;0.28;0.28;;;;;;;;;;5036318;28;20058;-73
2023/06/02 15:07:18;;;;;;;0.70;0.50;;;;;;;;;;5096183;22;20164;-72
2023/06/02 15:09:45;;;;;;;0.30;0.28;;;;;;;;;;5037954;28;20057;-73